Terminal Aerodrome Forecast
Issued by NWS

Home | Current Version | Previous Version | Text Only | Print | Product List | Glossary On
Versions: 1 2 3 4 5 6 7 8 9 10 11 12 13 14 15 16 17
000
FTUS43 KEAX 201400 AAA
TAFSTJ
TAF AMD
KSTJ 201411Z 2014/2112 19008KT 3SM BR SCT025 BKN070
     FM201600 22010KT P6SM BKN070
     FM202000 30007KT P6SM VCTS BKN050CB
      TEMPO 2021/2101 -TSRA
     FM210400 31005KT P6SM SCT050=

USA.gov is the U.S. government's official web portal to all federal, state and local government web resources and services.